Time;durP1;ratioP1;P1;durP2;ratioP2;P2;SDS_P1;SDS_P2;PMS_P1;PMS_P2;Temp;Humidity;BMP_temperature;BMP_pressure;BME280_temperature;BME280_humidity;BME280_pressure;Samples;Min_cycle;Max_cycle;Signal;HPM_P1;HPM_P2
2022/09/30 00:01:03;;;;;;;14.75;11.02;;;;;;;;;;4973139;28;20407;-68
2022/09/30 00:03:29;;;;;;;12.90;11.15;;;;;;;;;;4973267;28;20046;-68
2022/09/30 00:06:00;;;;;;;17.52;11.65;;;;;;;;;;4973190;28;20062;-68
2022/09/30 00:08:33;;;;;;;12.05;10.77;;;;;;;;;;4972988;28;20050;-68
2022/09/30 00:11:20;;;;;;;15.50;12.43;;;;;;;;;;4972721;28;20058;-68
2022/09/30 00:13:47;;;;;;;14.57;11.65;;;;;;;;;;4972815;28;20077;-68
2022/09/30 00:16:14;;;;;;;14.52;11.45;;;;;;;;;;4972987;28;20051;-68
2022/09/30 00:18:42;;;;;;;12.90;11.27;;;;;;;;;;4976522;28;20050;-68
2022/09/30 00:21:09;;;;;;;14.98;11.13;;;;;;;;;;4976810;28;20047;-67
2022/09/30 00:23:37;;;;;;;12.73;11.17;;;;;;;;;;4976948;28;20047;-68
2022/09/30 00:26:05;;;;;;;13.27;11.25;;;;;;;;;;4977064;28;20043;-68
2022/09/30 00:28:31;;;;;;;12.40;10.68;;;;;;;;;;4977018;28;20042;-68
2022/09/30 00:30:59;;;;;;;14.00;10.80;;;;;;;;;;4977004;28;20047;-68
2022/09/30 00:33:26;;;;;;;14.57;11.23;;;;;;;;;;4976520;28;20517;-68
2022/09/30 00:35:52;;;;;;;13.55;10.77;;;;;;;;;;4976800;28;20098;-69
2022/09/30 00:38:19;;;;;;;11.20;9.98;;;;;;;;;;4976477;28;20054;-68
2022/09/30 00:40:45;;;;;;;10.32;9.23;;;;;;;;;;4976723;28;20057;-68
2022/09/30 00:43:19;;;;;;;12.95;10.05;;;;;;;;;;4976631;28;20046;-68
2022/09/30 00:45:55;;;;;;;11.90;9.95;;;;;;;;;;4976375;28;20407;-68
2022/09/30 00:48:29;;;;;;;12.10;10.80;;;;;;;;;;4976613;28;20065;-67
2022/09/30 00:50:56;;;;;;;11.38;10.00;;;;;;;;;;4976514;28;20051;-67
2022/09/30 00:53:37;;;;;;;13.10;10.48;;;;;;;;;;4976238;28;20499;-69
2022/09/30 00:56:06;;;;;;;11.15;9.95;;;;;;;;;;4976301;28;20042;-67
2022/09/30 00:58:34;;;;;;;16.67;12.73;;;;;;;;;;4976133;28;20052;-67
2022/09/30 01:01:02;;;;;;;20.75;15.23;;;;;;;;;;4975955;28;20058;-67
2022/09/30 01:03:34;;;;;;;21.00;15.80;;;;;;;;;;4976372;28;20057;-67
2022/09/30 01:06:00;;;;;;;13.23;11.18;;;;;;;;;;4976382;28;20054;-67
2022/09/30 01:08:27;;;;;;;14.18;11.63;;;;;;;;;;4976145;28;20046;-67
2022/09/30 01:10:53;;;;;;;13.43;10.88;;;;;;;;;;4975948;28;20057;-67
2022/09/30 01:13:22;;;;;;;12.65;11.30;;;;;;;;;;4976095;28;20039;-67
2022/09/30 01:15:49;;;;;;;13.65;11.15;;;;;;;;;;4965306;28;20518;-67
2022/09/30 01:18:31;;;;;;;12.20;10.90;;;;;;;;;;4973471;28;20075;-67
2022/09/30 01:21:08;;;;;;;12.18;10.48;;;;;;;;;;4975814;28;20491;-67
2022/09/30 01:23:48;;;;;;;13.88;11.68;;;;;;;;;;4975673;28;20046;-67
2022/09/30 01:26:20;;;;;;;11.90;10.68;;;;;;;;;;4975689;28;20058;-67
2022/09/30 01:28:47;;;;;;;12.75;10.52;;;;;;;;;;4974889;28;20061;-67
2022/09/30 01:31:22;;;;;;;11.98;10.77;;;;;;;;;;4975860;28;20066;-68
2022/09/30 01:33:51;;;;;;;12.68;11.38;;;;;;;;;;4975288;28;20053;-67
2022/09/30 01:36:24;;;;;;;14.30;11.05;;;;;;;;;;4974546;28;20058;-68
2022/09/30 01:38:59;;;;;;;12.27;10.88;;;;;;;;;;4975634;28;20054;-67
2022/09/30 01:41:44;;;;;;;11.80;10.57;;;;;;;;;;4975823;28;20051;-68
2022/09/30 01:44:18;;;;;;;14.13;10.77;;;;;;;;;;4975453;28;20059;-68
2022/09/30 01:46:58;;;;;;;14.68;10.77;;;;;;;;;;4975348;28;20050;-67
2022/09/30 01:49:54;;;;;;;11.85;9.93;;;;;;;;;;4975585;28;20055;-68
2022/09/30 01:52:43;;;;;;;15.30;10.93;;;;;;;;;;4966568;28;20481;-67
2022/09/30 01:55:17;;;;;;;13.77;11.25;;;;;;;;;;4975083;28;20047;-67
2022/09/30 01:57:55;;;;;;;13.13;11.27;;;;;;;;;;4975371;28;20050;-67
2022/09/30 02:00:21;;;;;;;;;;;;;;;;;;4975642;28;20047;-67
2022/09/30 02:02:52;;;;;;;13.40;11.20;;;;;;;;;;4975174;28;19926;-67
2022/09/30 02:05:22;;;;;;;14.30;11.48;;;;;;;;;;4975524;28;20055;-68
2022/09/30 02:07:52;;;;;;;14.60;11.82;;;;;;;;;;4975205;28;20061;-69
2022/09/30 02:10:22;;;;;;;13.80;11.23;;;;;;;;;;4974722;28;20065;-69
2022/09/30 02:12:54;;;;;;;16.38;12.35;;;;;;;;;;4975126;28;20051;-69
2022/09/30 02:15:22;;;;;;;14.18;11.43;;;;;;;;;;4974761;28;20053;-67
2022/09/30 02:17:51;;;;;;;13.00;11.07;;;;;;;;;;4975042;28;20049;-67
2022/09/30 02:20:25;;;;;;;12.55;10.80;;;;;;;;;;4974626;28;20053;-68
2022/09/30 02:22:57;;;;;;;12.55;11.13;;;;;;;;;;4974626;28;20057;-68
2022/09/30 02:25:26;;;;;;;11.70;9.82;;;;;;;;;;4975041;28;20063;-68
2022/09/30 02:27:55;;;;;;;13.50;10.63;;;;;;;;;;4974597;28;20070;-67
2022/09/30 02:30:22;;;;;;;12.32;10.93;;;;;;;;;;4974563;28;20066;-68
2022/09/30 02:32:50;;;;;;;15.85;10.45;;;;;;;;;;4974423;28;20058;-67
2022/09/30 02:35:22;;;;;;;11.07;9.98;;;;;;;;;;4974340;28;20051;-69
2022/09/30 02:37:55;;;;;;;12.48;10.85;;;;;;;;;;4974712;28;20054;-69
2022/09/30 02:40:30;;;;;;;12.57;11.23;;;;;;;;;;4974378;28;20047;-69
2022/09/30 02:42:56;;;;;;;13.68;10.85;;;;;;;;;;4974686;28;20051;-67
2022/09/30 02:45:23;;;;;;;12.38;11.02;;;;;;;;;;4974598;28;20062;-67
2022/09/30 02:48:14;;;;;;;13.02;11.55;;;;;;;;;;4974414;28;20050;-67
2022/09/30 02:50:47;;;;;;;13.75;11.85;;;;;;;;;;4974079;28;20059;-67
2022/09/30 02:53:19;;;;;;;14.30;11.45;;;;;;;;;;4974453;28;20411;-67
2022/09/30 02:55:48;;;;;;;12.13;10.82;;;;;;;;;;4974469;28;20058;-67
2022/09/30 02:58:24;;;;;;;12.75;10.27;;;;;;;;;;4974269;28;20065;-67
2022/09/30 03:00:53;;;;;;;12.35;10.68;;;;;;;;;;4974046;28;20053;-67
2022/09/30 03:03:34;;;;;;;11.30;10.07;;;;;;;;;;4974243;28;20067;-68
2022/09/30 03:06:00;;;;;;;13.55;12.15;;;;;;;;;;4974091;28;20150;-67
2022/09/30 03:08:27;;;;;;;12.23;10.95;;;;;;;;;;4974076;28;20047;-67
2022/09/30 03:10:54;;;;;;;11.77;10.52;;;;;;;;;;4973772;28;20062;-67
2022/09/30 03:13:39;;;;;;;11.88;10.65;;;;;;;;;;4973939;28;20158;-68
2022/09/30 03:16:14;;;;;;;11.10;9.95;;;;;;;;;;4973917;28;20384;-68
2022/09/30 03:18:56;;;;;;;11.05;9.35;;;;;;;;;;4973657;28;20105;-68
2022/09/30 03:21:34;;;;;;;13.15;11.40;;;;;;;;;;4973549;28;20058;-68
2022/09/30 03:24:24;;;;;;;14.05;11.85;;;;;;;;;;4973645;28;20058;-68
2022/09/30 03:26:53;;;;;;;12.50;10.70;;;;;;;;;;4973371;28;20039;-67
2022/09/30 03:29:24;;;;;;;12.88;9.93;;;;;;;;;;4973501;28;20061;-68
2022/09/30 03:32:09;;;;;;;13.90;10.45;;;;;;;;;;4973370;28;20075;-67
2022/09/30 03:34:36;;;;;;;11.90;10.55;;;;;;;;;;4973267;28;20047;-67
2022/09/30 03:37:20;;;;;;;12.77;10.88;;;;;;;;;;4973247;28;20043;-68
2022/09/30 03:39:58;;;;;;;12.35;10.40;;;;;;;;;;4973464;28;20051;-68
2022/09/30 03:42:28;;;;;;;11.80;10.60;;;;;;;;;;4973388;28;20050;-68
2022/09/30 03:44:54;;;;;;;12.05;10.85;;;;;;;;;;4973291;28;20055;-68
2022/09/30 03:47:21;;;;;;;14.70;11.20;;;;;;;;;;4973095;28;20411;-68
2022/09/30 03:49:50;;;;;;;15.47;11.00;;;;;;;;;;4973685;28;20051;-68
2022/09/30 03:52:17;;;;;;;12.02;10.60;;;;;;;;;;4972730;28;20058;-68
2022/09/30 03:54:45;;;;;;;15.05;11.48;;;;;;;;;;4973192;28;20062;-68
2022/09/30 03:57:11;;;;;;;13.73;10.85;;;;;;;;;;4973140;28;20495;-68
2022/09/30 03:59:38;;;;;;;13.05;10.88;;;;;;;;;;4973169;28;20066;-68
2022/09/30 04:02:05;;;;;;;24.05;13.30;;;;;;;;;;4973329;28;20058;-68
2022/09/30 04:04:32;;;;;;;25.58;14.18;;;;;;;;;;4973449;28;20051;-67
2022/09/30 04:06:59;;;;;;;40.25;15.25;;;;;;;;;;4973264;28;20042;-68
2022/09/30 04:09:26;;;;;;;24.15;14.30;;;;;;;;;;4973020;28;20051;-67
2022/09/30 04:11:52;;;;;;;21.40;13.05;;;;;;;;;;4973200;28;20055;-67
2022/09/30 04:14:18;;;;;;;25.52;14.13;;;;;;;;;;4972952;28;20415;-67
2022/09/30 04:16:45;;;;;;;16.73;12.25;;;;;;;;;;4972741;28;20494;-68
2022/09/30 04:19:18;;;;;;;16.73;11.82;;;;;;;;;;4973150;28;20085;-68
2022/09/30 04:21:44;;;;;;;16.00;12.25;;;;;;;;;;4972687;28;20090;-67
2022/09/30 04:24:11;;;;;;;15.80;11.95;;;;;;;;;;4972906;28;20043;-68
2022/09/30 04:26:37;;;;;;;18.60;12.38;;;;;;;;;;4973132;28;20064;-68
2022/09/30 04:29:03;;;;;;;15.02;11.35;;;;;;;;;;4972729;28;20054;-68
2022/09/30 04:31:30;;;;;;;17.45;12.15;;;;;;;;;;4972866;28;20055;-68
2022/09/30 04:33:56;;;;;;;23.48;13.27;;;;;;;;;;4973118;28;20065;-68
2022/09/30 04:36:23;;;;;;;19.80;12.82;;;;;;;;;;4972781;28;20054;-68
2022/09/30 04:38:49;;;;;;;18.30;11.32;;;;;;;;;;4972717;28;20059;-68
2022/09/30 04:41:16;;;;;;;16.10;12.10;;;;;;;;;;4972873;28;20058;-67
2022/09/30 04:43:45;;;;;;;13.63;10.93;;;;;;;;;;4972928;28;20047;-67
2022/09/30 04:46:12;;;;;;;15.35;11.10;;;;;;;;;;4972537;28;20050;-67
2022/09/30 04:48:38;;;;;;;13.98;11.13;;;;;;;;;;4972738;28;20066;-67
2022/09/30 04:51:04;;;;;;;14.13;10.45;;;;;;;;;;4968973;28;20786;-67
2022/09/30 04:53:31;;;;;;;15.55;11.60;;;;;;;;;;4967402;28;20500;-67
2022/09/30 04:55:58;;;;;;;16.77;12.05;;;;;;;;;;4960409;28;20047;-67
2022/09/30 04:58:25;;;;;;;19.08;12.10;;;;;;;;;;4971938;28;20058;-67
2022/09/30 05:00:58;;;;;;;19.55;12.65;;;;;;;;;;4971799;28;20054;-67
2022/09/30 05:03:24;;;;;;;17.02;12.27;;;;;;;;;;4956181;28;20280;-67
2022/09/30 05:05:51;;;;;;;16.17;12.60;;;;;;;;;;4957733;28;20055;-67
2022/09/30 05:08:17;;;;;;;16.30;12.43;;;;;;;;;;4958327;28;20051;-67
2022/09/30 05:10:45;;;;;;;15.07;11.55;;;;;;;;;;4955577;28;20148;-67
2022/09/30 05:13:12;;;;;;;13.57;10.80;;;;;;;;;;4955899;28;20053;-68
2022/09/30 05:15:38;;;;;;;14.23;11.02;;;;;;;;;;4970781;28;20047;-67
2022/09/30 05:18:04;;;;;;;12.75;10.82;;;;;;;;;;4970729;28;20254;-67
2022/09/30 05:20:31;;;;;;;13.07;10.88;;;;;;;;;;4955582;28;21392;-67
2022/09/30 05:22:57;;;;;;;12.70;10.32;;;;;;;;;;4955665;28;20051;-68
2022/09/30 05:25:24;;;;;;;14.73;11.15;;;;;;;;;;4955372;28;20054;-67
2022/09/30 05:27:50;;;;;;;20.52;11.27;;;;;;;;;;4957631;28;20055;-67
2022/09/30 05:30:16;;;;;;;15.35;10.80;;;;;;;;;;4964877;28;20062;-67
2022/09/30 05:32:43;;;;;;;18.40;10.85;;;;;;;;;;4955222;28;20055;-67
2022/09/30 05:35:10;;;;;;;36.83;14.10;;;;;;;;;;4955004;28;20047;-67
2022/09/30 05:37:37;;;;;;;27.08;13.30;;;;;;;;;;4955360;28;20055;-67
2022/09/30 05:40:04;;;;;;;25.30;13.27;;;;;;;;;;4955263;28;20051;-67
2022/09/30 05:42:33;;;;;;;19.27;12.85;;;;;;;;;;4957460;28;20043;-67
2022/09/30 05:44:59;;;;;;;20.02;13.35;;;;;;;;;;4960930;28;20053;-67
2022/09/30 05:47:26;;;;;;;24.95;13.18;;;;;;;;;;4974524;28;20050;-67
2022/09/30 05:49:52;;;;;;;22.55;14.10;;;;;;;;;;4974799;28;20051;-67
2022/09/30 05:52:21;;;;;;;24.33;14.60;;;;;;;;;;4972680;28;20054;-67
2022/09/30 05:54:49;;;;;;;18.77;14.18;;;;;;;;;;4974537;28;20055;-68
2022/09/30 05:57:16;;;;;;;19.90;13.13;;;;;;;;;;4974953;28;20434;-68
2022/09/30 05:59:42;;;;;;;19.67;12.95;;;;;;;;;;4974488;28;20054;-67
2022/09/30 06:02:09;;;;;;;18.50;12.70;;;;;;;;;;4966982;28;20051;-68
2022/09/30 06:04:36;;;;;;;17.00;12.47;;;;;;;;;;4973054;28;20070;-68
2022/09/30 06:07:02;;;;;;;15.57;12.73;;;;;;;;;;4954702;28;20061;-68
2022/09/30 06:09:35;;;;;;;16.27;12.68;;;;;;;;;;4963881;28;20054;-68
2022/09/30 06:12:02;;;;;;;19.05;14.27;;;;;;;;;;4974038;28;20050;-68
2022/09/30 06:14:28;;;;;;;17.67;14.77;;;;;;;;;;4972950;28;20055;-67
2022/09/30 06:16:54;;;;;;;19.75;15.43;;;;;;;;;;4974585;28;20065;-68
2022/09/30 06:19:21;;;;;;;16.92;14.02;;;;;;;;;;4974709;28;20054;-67
2022/09/30 06:21:47;;;;;;;17.25;13.50;;;;;;;;;;4973266;28;20094;-67
2022/09/30 06:24:14;;;;;;;14.95;13.20;;;;;;;;;;4974636;28;20050;-68
2022/09/30 06:26:41;;;;;;;14.23;12.52;;;;;;;;;;4973757;28;20047;-67
2022/09/30 06:29:08;;;;;;;15.70;12.98;;;;;;;;;;4974143;28;20493;-66
2022/09/30 06:31:34;;;;;;;38.15;26.27;;;;;;;;;;4974174;28;20051;-66
2022/09/30 06:34:01;;;;;;;115.65;74.00;;;;;;;;;;4974116;28;20129;-66
2022/09/30 06:36:28;;;;;;;86.07;57.55;;;;;;;;;;4974097;28;20047;-67
2022/09/30 06:38:54;;;;;;;53.05;36.78;;;;;;;;;;4973663;28;20043;-67
2022/09/30 06:41:24;;;;;;;30.52;21.25;;;;;;;;;;4973643;28;20061;-67
2022/09/30 06:43:50;;;;;;;24.58;19.98;;;;;;;;;;4973961;28;20499;-68
2022/09/30 06:46:24;;;;;;;20.10;14.80;;;;;;;;;;4969475;28;20055;-67
2022/09/30 06:48:57;;;;;;;16.45;12.50;;;;;;;;;;4970870;28;20447;-68
2022/09/30 06:51:37;;;;;;;15.27;11.63;;;;;;;;;;4973177;28;20086;-68
2022/09/30 06:54:04;;;;;;;11.63;10.52;;;;;;;;;;4973440;28;20495;-67
2022/09/30 06:56:30;;;;;;;12.90;10.23;;;;;;;;;;4973681;28;20046;-67
2022/09/30 06:58:57;;;;;;;13.88;10.15;;;;;;;;;;4973392;28;20039;-68
2022/09/30 07:01:23;;;;;;;12.38;9.65;;;;;;;;;;4963488;28;20047;-67
2022/09/30 07:03:56;;;;;;;12.73;9.70;;;;;;;;;;4954323;28;20051;-70
2022/09/30 07:06:25;;;;;;;12.15;9.77;;;;;;;;;;4966120;28;20050;-66
2022/09/30 07:08:52;;;;;;;12.18;9.43;;;;;;;;;;4974015;28;20085;-67
2022/09/30 07:11:20;;;;;;;10.68;9.07;;;;;;;;;;4973722;28;20065;-68
2022/09/30 07:13:48;;;;;;;10.32;9.00;;;;;;;;;;4973409;28;20577;-67
2022/09/30 07:16:15;;;;;;;12.10;10.18;;;;;;;;;;4973492;28;20479;-67
2022/09/30 07:18:42;;;;;;;11.85;9.55;;;;;;;;;;4970695;28;20097;-67
2022/09/30 07:21:09;;;;;;;11.43;9.40;;;;;;;;;;4973385;28;20509;-68
2022/09/30 07:23:36;;;;;;;10.60;9.03;;;;;;;;;;4973606;28;20053;-67
2022/09/30 07:26:03;;;;;;;12.50;9.05;;;;;;;;;;4973335;28;20284;-68
2022/09/30 07:28:34;;;;;;;11.10;9.25;;;;;;;;;;4972940;28;20146;-68
2022/09/30 07:31:05;;;;;;;10.45;8.52;;;;;;;;;;4973168;28;20508;-67
2022/09/30 07:33:51;;;;;;;12.07;8.80;;;;;;;;;;4972520;28;20062;-68
2022/09/30 07:36:19;;;;;;;10.18;8.27;;;;;;;;;;4973258;28;20051;-68
2022/09/30 07:38:50;;;;;;;11.35;8.68;;;;;;;;;;4973018;28;20053;-68
2022/09/30 07:41:18;;;;;;;11.10;8.07;;;;;;;;;;4973082;28;20050;-68
2022/09/30 07:43:45;;;;;;;10.65;8.20;;;;;;;;;;4973451;28;20054;-68
2022/09/30 07:46:13;;;;;;;9.50;7.88;;;;;;;;;;4972113;28;20418;-68
2022/09/30 07:48:50;;;;;;;10.60;6.95;;;;;;;;;;4973415;28;20085;-68
2022/09/30 07:51:17;;;;;;;8.40;7.60;;;;;;;;;;4973325;28;20097;-68
2022/09/30 07:53:44;;;;;;;7.72;6.93;;;;;;;;;;4967821;28;20308;-67
2022/09/30 07:56:11;;;;;;;9.75;7.88;;;;;;;;;;4970754;28;20412;-68
2022/09/30 07:58:38;;;;;;;8.63;7.40;;;;;;;;;;4972129;28;20051;-67
2022/09/30 08:01:07;;;;;;;10.75;7.32;;;;;;;;;;4971938;28;20761;-67
2022/09/30 08:03:38;;;;;;;9.10;6.95;;;;;;;;;;4972055;28;20055;-67
2022/09/30 08:06:09;;;;;;;7.57;6.88;;;;;;;;;;4972007;28;20418;-67
2022/09/30 08:08:35;;;;;;;8.52;7.55;;;;;;;;;;4972171;28;20105;-68
2022/09/30 08:11:02;;;;;;;7.05;6.45;;;;;;;;;;4958435;28;20065;-68
2022/09/30 08:13:29;;;;;;;7.13;6.43;;;;;;;;;;4955378;28;20059;-65
2022/09/30 08:15:55;;;;;;;8.13;6.88;;;;;;;;;;4972435;28;20297;-66
2022/09/30 08:18:21;;;;;;;6.13;5.53;;;;;;;;;;4971947;28;20054;-66
2022/09/30 08:20:48;;;;;;;9.40;6.93;;;;;;;;;;4972158;28;20047;-67
2022/09/30 08:23:14;;;;;;;7.20;6.53;;;;;;;;;;4956505;28;20144;-68
2022/09/30 08:25:41;;;;;;;6.93;6.22;;;;;;;;;;4960163;28;20432;-68
2022/09/30 08:28:07;;;;;;;7.65;6.47;;;;;;;;;;4972673;28;20046;-68
2022/09/30 08:30:34;;;;;;;7.45;6.15;;;;;;;;;;4972210;28;20058;-68
2022/09/30 08:33:01;;;;;;;6.45;5.82;;;;;;;;;;4970455;28;20047;-68
2022/09/30 08:35:27;;;;;;;6.45;5.85;;;;;;;;;;4972364;28;20052;-68
2022/09/30 08:37:54;;;;;;;7.43;6.32;;;;;;;;;;4973434;28;20510;-68
2022/09/30 08:40:23;;;;;;;6.63;5.85;;;;;;;;;;4976486;28;20047;-67
2022/09/30 08:43:08;;;;;;;6.78;5.72;;;;;;;;;;4962423;28;20062;-68
2022/09/30 08:45:39;;;;;;;6.22;5.63;;;;;;;;;;4975801;28;20105;-68
2022/09/30 08:48:12;;;;;;;6.50;5.90;;;;;;;;;;4976223;28;20129;-68
2022/09/30 08:51:00;;;;;;;7.70;5.47;;;;;;;;;;4975419;28;20058;-68
2022/09/30 08:53:40;;;;;;;5.85;5.35;;;;;;;;;;4975786;28;20496;-68
2022/09/30 08:56:07;;;;;;;6.07;5.38;;;;;;;;;;4975643;28;20410;-67
2022/09/30 08:58:37;;;;;;;5.20;4.72;;;;;;;;;;4975799;28;20043;-67
2022/09/30 09:01:10;;;;;;;5.20;4.80;;;;;;;;;;4963248;28;20461;-67
2022/09/30 09:03:39;;;;;;;4.80;4.40;;;;;;;;;;4975310;28;20050;-68
2022/09/30 09:06:14;;;;;;;5.20;4.20;;;;;;;;;;4975182;28;20051;-68
2022/09/30 09:08:47;;;;;;;4.13;3.75;;;;;;;;;;4975019;28;20398;-67
2022/09/30 09:11:32;;;;;;;4.72;4.20;;;;;;;;;;4975322;28;20057;-67
2022/09/30 09:14:05;;;;;;;4.25;3.95;;;;;;;;;;4975726;28;20050;-68
2022/09/30 09:16:40;;;;;;;4.53;4.22;;;;;;;;;;4975537;28;20047;-68
2022/09/30 09:19:16;;;;;;;5.63;4.47;;;;;;;;;;4975410;28;20097;-67
2022/09/30 09:21:56;;;;;;;4.95;4.38;;;;;;;;;;4975610;28;20146;-66
2022/09/30 09:24:26;;;;;;;5.97;4.07;;;;;;;;;;4975237;28;20078;-66
2022/09/30 09:26:54;;;;;;;6.03;4.30;;;;;;;;;;4975224;28;20047;-66
2022/09/30 09:29:39;;;;;;;5.28;4.78;;;;;;;;;;4962538;28;20069;-66
2022/09/30 09:32:11;;;;;;;5.60;4.65;;;;;;;;;;4968888;28;20059;-66
2022/09/30 09:34:40;;;;;;;5.38;4.53;;;;;;;;;;4972174;28;20070;-66
2022/09/30 09:37:13;;;;;;;6.35;4.63;;;;;;;;;;4972646;28;20403;-66
2022/09/30 09:39:42;;;;;;;5.78;4.90;;;;;;;;;;4973215;28;20062;-66
2022/09/30 09:42:11;;;;;;;5.13;4.38;;;;;;;;;;4973171;28;20057;-66
2022/09/30 09:44:41;;;;;;;4.57;4.18;;;;;;;;;;4972918;28;20058;-66
2022/09/30 09:47:12;;;;;;;5.28;4.13;;;;;;;;;;4974213;28;20059;-66
2022/09/30 09:49:41;;;;;;;5.05;4.57;;;;;;;;;;4973322;28;20134;-66
2022/09/30 09:52:07;;;;;;;4.53;3.78;;;;;;;;;;4974407;28;20064;-66
2022/09/30 09:54:40;;;;;;;4.03;3.72;;;;;;;;;;4975352;28;20066;-66
2022/09/30 09:57:09;;;;;;;4.97;4.43;;;;;;;;;;4975073;28;20050;-66
2022/09/30 09:59:38;;;;;;;4.40;4.00;;;;;;;;;;4975169;28;20046;-66
2022/09/30 10:02:23;;;;;;;5.18;4.50;;;;;;;;;;4975228;28;20050;-66
2022/09/30 10:04:58;;;;;;;4.90;4.40;;;;;;;;;;4975225;28;20074;-66
2022/09/30 10:07:26;;;;;;;4.13;3.72;;;;;;;;;;4975035;28;20407;-66
2022/09/30 10:10:05;;;;;;;6.13;4.10;;;;;;;;;;4974962;28;20058;-66
2022/09/30 10:12:31;;;;;;;4.90;3.80;;;;;;;;;;4974747;28;20062;-66
2022/09/30 10:15:03;;;;;;;6.47;3.67;;;;;;;;;;4973641;28;20055;-66
2022/09/30 10:17:31;;;;;;;5.00;3.55;;;;;;;;;;4973376;28;20406;-66
2022/09/30 10:20:05;;;;;;;3.42;3.13;;;;;;;;;;4973846;28;20061;-66
2022/09/30 10:22:32;;;;;;;4.32;3.38;;;;;;;;;;4974153;28;20055;-66
2022/09/30 10:25:16;;;;;;;4.53;3.30;;;;;;;;;;4973782;28;20050;-66
2022/09/30 10:27:51;;;;;;;4.35;2.90;;;;;;;;;;4973869;28;20487;-66
2022/09/30 10:30:29;;;;;;;3.30;2.50;;;;;;;;;;4973998;28;20058;-66
2022/09/30 10:32:56;;;;;;;4.60;2.40;;;;;;;;;;4973449;28;20061;-66
2022/09/30 10:35:23;;;;;;;4.73;2.53;;;;;;;;;;4973829;28;20055;-65
2022/09/30 10:37:51;;;;;;;3.78;2.55;;;;;;;;;;4974128;28;20042;-65
2022/09/30 10:40:18;;;;;;;4.68;2.55;;;;;;;;;;4967186;28;20043;-66
2022/09/30 10:42:46;;;;;;;3.75;2.40;;;;;;;;;;4973977;28;20065;-65
2022/09/30 10:45:18;;;;;;;5.50;2.30;;;;;;;;;;4973923;28;20047;-66
2022/09/30 10:47:47;;;;;;;2.72;2.00;;;;;;;;;;4973810;28;20097;-66
2022/09/30 10:50:16;;;;;;;6.28;2.35;;;;;;;;;;4973703;28;20487;-65
2022/09/30 10:52:51;;;;;;;4.15;2.00;;;;;;;;;;4973494;28;20533;-65
2022/09/30 10:55:28;;;;;;;4.78;2.70;;;;;;;;;;4973802;28;20061;-65
2022/09/30 10:57:56;;;;;;;3.72;2.30;;;;;;;;;;4973619;28;20038;-65
2022/09/30 11:00:24;;;;;;;4.03;2.42;;;;;;;;;;4973629;28;20050;-66
2022/09/30 11:02:50;;;;;;;;;;;;;;;;;;4972970;28;20061;-66
2022/09/30 11:05:23;;;;;;;6.45;2.35;;;;;;;;;;4973064;28;19925;-66
2022/09/30 11:07:56;;;;;;;6.32;1.98;;;;;;;;;;4972977;28;20054;-67
2022/09/30 11:10:35;;;;;;;5.60;2.42;;;;;;;;;;4973317;28;20050;-67
2022/09/30 11:13:06;;;;;;;5.50;2.25;;;;;;;;;;4971171;28;20495;-67
2022/09/30 11:15:38;;;;;;;4.03;2.10;;;;;;;;;;4966255;28;20526;-66
2022/09/30 11:18:10;;;;;;;5.85;2.03;;;;;;;;;;4972374;28;20505;-66
2022/09/30 11:20:40;;;;;;;5.53;2.10;;;;;;;;;;4971337;28;20047;-66
2022/09/30 11:23:25;;;;;;;4.32;2.03;;;;;;;;;;4954621;28;20047;-67
2022/09/30 11:25:51;;;;;;;3.45;2.10;;;;;;;;;;4962230;28;20055;-67
2022/09/30 11:28:23;;;;;;;4.90;1.83;;;;;;;;;;4973173;28;20054;-67
2022/09/30 11:31:08;;;;;;;6.88;2.15;;;;;;;;;;4972958;28;20557;-66
2022/09/30 11:33:54;;;;;;;5.63;2.08;;;;;;;;;;4973063;28;20054;-66
2022/09/30 11:36:45;;;;;;;5.18;1.80;;;;;;;;;;4968595;28;20414;-66
2022/09/30 11:39:26;;;;;;;5.10;2.08;;;;;;;;;;4973132;28;20434;-67
2022/09/30 11:42:01;;;;;;;5.85;2.05;;;;;;;;;;4972585;28;20411;-68
2022/09/30 11:44:32;;;;;;;2.67;1.67;;;;;;;;;;4972627;28;20050;-67
2022/09/30 11:47:07;;;;;;;4.43;1.48;;;;;;;;;;4973006;28;20055;-67
2022/09/30 11:49:43;;;;;;;6.47;1.73;;;;;;;;;;4972912;28;20051;-67
2022/09/30 11:52:15;;;;;;;3.75;1.75;;;;;;;;;;4967025;28;20054;-66
2022/09/30 11:55:05;;;;;;;6.32;2.03;;;;;;;;;;4969258;28;20481;-66
2022/09/30 11:57:40;;;;;;;4.22;2.00;;;;;;;;;;4972705;28;20160;-67
2022/09/30 12:00:14;;;;;;;6.13;2.25;;;;;;;;;;4972637;28;20051;-67
2022/09/30 12:02:45;;;;;;;5.78;2.13;;;;;;;;;;4972544;28;20057;-67
2022/09/30 12:05:26;;;;;;;4.03;2.25;;;;;;;;;;4972499;28;20541;-67
2022/09/30 12:08:11;;;;;;;5.43;2.28;;;;;;;;;;4972494;28;20061;-67
2022/09/30 12:10:43;;;;;;;2.67;1.63;;;;;;;;;;4972281;28;20107;-66
2022/09/30 12:13:12;;;;;;;4.93;2.22;;;;;;;;;;4968263;28;20050;-66
2022/09/30 12:15:43;;;;;;;6.57;2.40;;;;;;;;;;4969675;28;20566;-66
2022/09/30 12:18:14;;;;;;;4.88;1.95;;;;;;;;;;4966347;28;20055;-66
2022/09/30 12:20:42;;;;;;;3.45;1.60;;;;;;;;;;4965875;28;20047;-66
2022/09/30 12:23:09;;;;;;;4.68;1.95;;;;;;;;;;4972472;28;20057;-65
2022/09/30 12:25:38;;;;;;;5.20;2.15;;;;;;;;;;4972466;28;20054;-65
2022/09/30 12:31:19;;;;;;;3.25;1.38;;;;;;;;;;4972377;28;20062;-66
2022/09/30 12:33:55;;;;;;;2.85;1.42;;;;;;;;;;4971600;28;20054;-66
2022/09/30 12:36:24;;;;;;;3.63;1.38;;;;;;;;;;4972407;28;20054;-67
2022/09/30 12:39:03;;;;;;;2.47;1.00;;;;;;;;;;4972236;28;20046;-67
2022/09/30 12:41:32;;;;;;;4.55;1.50;;;;;;;;;;4972322;28;20050;-67
2022/09/30 12:44:11;;;;;;;2.95;1.30;;;;;;;;;;4971595;28;20085;-66
2022/09/30 12:46:40;;;;;;;4.28;1.40;;;;;;;;;;4971909;28;20042;-66
2022/09/30 12:49:09;;;;;;;2.45;0.65;;;;;;;;;;4972104;28;20074;-67
2022/09/30 12:51:40;;;;;;;3.90;0.77;;;;;;;;;;4971615;28;20047;-67
2022/09/30 12:54:16;;;;;;;1.92;0.77;;;;;;;;;;4971828;28;20051;-67
2022/09/30 12:56:43;;;;;;;1.95;0.90;;;;;;;;;;4971819;28;20058;-67
2022/09/30 12:59:11;;;;;;;3.40;1.00;;;;;;;;;;4972023;28;20057;-67
2022/09/30 13:01:38;;;;;;;3.65;1.15;;;;;;;;;;4971810;28;20042;-67
2022/09/30 13:04:05;;;;;;;2.78;0.85;;;;;;;;;;4972200;28;20061;-67
2022/09/30 13:06:43;;;;;;;2.20;1.05;;;;;;;;;;4971824;28;20046;-67
2022/09/30 13:09:10;;;;;;;2.47;1.13;;;;;;;;;;4971881;28;20073;-67
2022/09/30 13:11:40;;;;;;;2.75;1.00;;;;;;;;;;4969681;28;20414;-67
2022/09/30 13:14:13;;;;;;;3.63;1.00;;;;;;;;;;4971881;28;20058;-67
2022/09/30 13:17:00;;;;;;;2.97;0.90;;;;;;;;;;4971827;28;20495;-67
2022/09/30 13:19:32;;;;;;;3.22;1.00;;;;;;;;;;4972106;28;20054;-66
2022/09/30 13:22:28;;;;;;;3.47;1.23;;;;;;;;;;4971542;28;20057;-67
2022/09/30 13:27:33;;;;;;;3.50;1.00;;;;;;;;;;4975048;28;20491;-67
2022/09/30 13:30:00;;;;;;;3.75;1.15;;;;;;;;;;4974741;28;20064;-67
2022/09/30 13:32:36;;;;;;;5.88;1.20;;;;;;;;;;4973975;28;20069;-67
2022/09/30 13:35:22;;;;;;;3.97;1.25;;;;;;;;;;4974606;28;20050;-67
2022/09/30 13:38:08;;;;;;;3.95;0.95;;;;;;;;;;4974560;28;20054;-67
2022/09/30 13:40:35;;;;;;;4.57;1.48;;;;;;;;;;4974776;28;20054;-67
2022/09/30 13:43:34;;;;;;;5.53;1.40;;;;;;;;;;4974598;28;20093;-68
2022/09/30 13:46:12;;;;;;;3.85;1.38;;;;;;;;;;4974439;28;20403;-67
2022/09/30 13:48:38;;;;;;;;;;;;;;;;;;4975030;28;20412;-67
2022/09/30 13:51:07;;;;;;;4.03;1.15;;;;;;;;;;4974125;28;19926;-67
2022/09/30 13:53:36;;;;;;;5.15;1.15;;;;;;;;;;4974802;28;20051;-67
2022/09/30 13:56:05;;;;;;;4.90;1.35;;;;;;;;;;4974558;28;20050;-67
2022/09/30 13:58:32;;;;;;;3.90;1.35;;;;;;;;;;4974815;28;20061;-66
2022/09/30 14:01:17;;;;;;;4.55;1.40;;;;;;;;;;4974822;28;20057;-66
2022/09/30 14:04:03;;;;;;;4.32;1.30;;;;;;;;;;4974638;28;20474;-67
2022/09/30 14:06:59;;;;;;;4.38;1.10;;;;;;;;;;4974234;28;20491;-67
2022/09/30 14:09:37;;;;;;;4.60;1.20;;;;;;;;;;4965647;28;20047;-66
2022/09/30 14:12:12;;;;;;;3.15;1.20;;;;;;;;;;4971840;28;20054;-67
2022/09/30 14:14:41;;;;;;;2.47;1.10;;;;;;;;;;4962054;28;20054;-66
2022/09/30 14:17:18;;;;;;;5.50;1.10;;;;;;;;;;4973247;28;20055;-65
2022/09/30 14:19:57;;;;;;;5.55;1.05;;;;;;;;;;4975012;28;20046;-66
2022/09/30 14:22:26;;;;;;;6.47;1.20;;;;;;;;;;4972717;28;20410;-66
2022/09/30 14:24:52;;;;;;;3.83;1.02;;;;;;;;;;4974180;28;20058;-65
2022/09/30 14:27:28;;;;;;;5.28;1.20;;;;;;;;;;4974276;28;20058;-65
2022/09/30 14:30:13;;;;;;;2.88;1.02;;;;;;;;;;4974044;28;20046;-66
2022/09/30 14:32:45;;;;;;;2.92;0.82;;;;;;;;;;4973755;28;20058;-66
2022/09/30 14:35:15;;;;;;;4.63;1.30;;;;;;;;;;4973794;28;20043;-66
2022/09/30 14:37:44;;;;;;;4.78;1.17;;;;;;;;;;4973407;28;20057;-66
2022/09/30 14:40:14;;;;;;;3.92;1.23;;;;;;;;;;4968536;28;20050;-67
2022/09/30 14:42:43;;;;;;;3.47;1.50;;;;;;;;;;4974245;28;20054;-66
2022/09/30 14:45:15;;;;;;;5.32;1.13;;;;;;;;;;4971929;28;20062;-66
2022/09/30 14:47:43;;;;;;;5.47;1.65;;;;;;;;;;4972834;28;20055;-66
2022/09/30 14:50:14;;;;;;;4.70;1.30;;;;;;;;;;4973725;28;20483;-66
2022/09/30 14:52:42;;;;;;;5.53;1.15;;;;;;;;;;4973643;28;20146;-65
2022/09/30 14:55:17;;;;;;;4.03;0.98;;;;;;;;;;4973907;28;20050;-66
2022/09/30 14:57:44;;;;;;;5.25;1.30;;;;;;;;;;4973275;28;20049;-66
2022/09/30 15:00:27;;;;;;;2.70;1.10;;;;;;;;;;4974081;28;20405;-67